createdAt,value
2023-04-03T00:01:12.814Z,2.30
2023-04-03T00:03:41.903Z,3.50
2023-04-03T00:06:11.576Z,3.28
2023-04-03T00:08:40.290Z,2.60
2023-04-03T00:11:08.346Z,3.45
2023-04-03T00:13:35.930Z,2.75
2023-04-03T00:16:04.158Z,2.10
2023-04-03T00:18:31.676Z,2.83
2023-04-03T00:20:59.278Z,3.67
2023-04-03T00:23:26.752Z,2.45
2023-04-03T00:25:55.090Z,2.17
2023-04-03T00:28:22.757Z,2.80
2023-04-03T00:30:50.628Z,3.00
2023-04-03T00:33:17.908Z,3.20
2023-04-03T00:35:45.134Z,5.53
2023-04-03T00:38:12.410Z,2.55
2023-04-03T00:40:44.994Z,2.95
2023-04-03T00:43:23.346Z,2.05
2023-04-03T00:45:56.978Z,2.45
2023-04-03T00:48:47.775Z,2.58
2023-04-03T00:51:23.960Z,1.80
2023-04-03T00:54:04.134Z,1.17
2023-04-03T00:56:31.887Z,1.48
2023-04-03T00:59:23.458Z,1.65
2023-04-03T01:01:51.262Z,2.00
2023-04-03T01:04:41.465Z,3.78
2023-04-03T01:07:18.556Z,3.22
2023-04-03T01:09:47.338Z,2.88
2023-04-03T01:12:30.781Z,4.05
2023-04-03T01:15:01.867Z,3.53
2023-04-03T01:17:38.312Z,3.40
2023-04-03T01:20:35.565Z,4.13
2023-04-03T01:23:20.507Z,3.67
2023-04-03T01:25:52.202Z,2.67
2023-04-03T01:28:34.040Z,4.28
2023-04-03T01:31:18.845Z,4.22
2023-04-03T01:33:47.837Z,3.90
2023-04-03T01:36:22.926Z,5.10
2023-04-03T01:38:50.860Z,4.90
2023-04-03T01:41:18.823Z,3.85
2023-04-03T01:46:17.468Z,2.58
2023-04-03T01:48:45.338Z,3.75
2023-04-03T01:51:12.719Z,4.43
2023-04-03T01:53:40.111Z,4.05
2023-04-03T01:56:09.107Z,4.13
2023-04-03T01:58:36.398Z,3.60
2023-04-03T02:01:04.829Z,3.75
2023-04-03T02:03:32.102Z,3.85
2023-04-03T02:05:59.989Z,5.00
2023-04-03T02:08:27.290Z,6.35
2023-04-03T02:10:54.675Z,5.25
2023-04-03T02:13:22.055Z,6.20
2023-04-03T02:15:50.256Z,5.68
2023-04-03T02:18:18.649Z,5.30
2023-04-03T02:20:47.403Z,6.18
2023-04-03T02:23:14.793Z,4.78
2023-04-03T02:25:42.066Z,5.78
2023-04-03T02:28:09.377Z,5.88
2023-04-03T02:30:36.864Z,6.68
2023-04-03T02:33:08.218Z,6.63
2023-04-03T02:35:37.238Z,6.05
2023-04-03T02:38:04.923Z,6.10
2023-04-03T02:40:32.267Z,6.80
2023-04-03T02:42:59.663Z,6.55
2023-04-03T02:45:27.485Z,7.72
2023-04-03T02:47:54.937Z,6.70
2023-04-03T02:50:22.240Z,5.63
2023-04-03T02:52:49.800Z,6.20
2023-04-03T02:55:17.344Z,5.20
2023-04-03T03:00:14.990Z,4.43
2023-04-03T03:02:42.441Z,5.38
2023-04-03T03:05:09.978Z,4.78
2023-04-03T03:07:37.317Z,7.32
2023-04-03T03:10:05.120Z,6.32
2023-04-03T03:12:33.772Z,6.88
2023-04-03T03:15:01.093Z,6.90
2023-04-03T03:17:31.316Z,6.53
2023-04-03T03:19:58.749Z,4.88
2023-04-03T03:22:29.024Z,4.80
2023-04-03T03:24:57.277Z,5.03
2023-04-03T03:27:25.201Z,5.88
2023-04-03T03:29:52.967Z,5.82
2023-04-03T03:32:21.378Z,5.25
2023-04-03T03:34:48.771Z,6.63
2023-04-03T03:37:16.111Z,5.43
2023-04-03T03:39:43.204Z,5.85
2023-04-03T03:42:10.393Z,4.65
2023-04-03T03:44:37.642Z,5.78
2023-04-03T03:47:06.443Z,6.22
2023-04-03T03:49:33.841Z,7.05
2023-04-03T03:52:02.100Z,6.63
2023-04-03T03:54:29.813Z,5.93
2023-04-03T03:56:57.409Z,5.80
2023-04-03T03:59:26.560Z,5.72
2023-04-03T04:01:54.145Z,5.47
2023-04-03T04:04:22.023Z,5.32
2023-04-03T04:06:49.414Z,5.93
2023-04-03T04:09:16.669Z,6.18
2023-04-03T04:11:44.207Z,5.38
2023-04-03T04:14:13.855Z,5.75
2023-04-03T04:16:43.310Z,7.25
2023-04-03T04:19:16.038Z,5.78
2023-04-03T04:21:44.362Z,6.53
2023-04-03T04:24:11.746Z,7.70
2023-04-03T04:26:40.350Z,7.40
2023-04-03T04:29:11.041Z,9.70
2023-04-03T04:31:38.606Z,13.35
2023-04-03T04:34:06.634Z,12.55
2023-04-03T04:36:34.817Z,11.80
2023-04-03T04:39:02.159Z,13.48
2023-04-03T04:41:29.815Z,11.82
2023-04-03T04:43:57.911Z,10.20
2023-04-03T04:46:26.211Z,9.83
2023-04-03T04:48:57.925Z,9.93
2023-04-03T04:51:30.943Z,9.43
2023-04-03T04:54:02.517Z,7.53
2023-04-03T04:56:30.224Z,7.65
2023-04-03T04:58:58.528Z,6.73
2023-04-03T05:01:27.301Z,7.35
2023-04-03T05:04:06.146Z,7.28
2023-04-03T05:06:35.430Z,8.82
2023-04-03T05:09:05.752Z,7.50
2023-04-03T05:14:01.568Z,6.00
2023-04-03T05:16:30.486Z,7.00
2023-04-03T05:18:58.369Z,6.88
2023-04-03T05:21:26.636Z,6.50
2023-04-03T05:23:53.934Z,6.28
2023-04-03T05:26:21.906Z,5.57
2023-04-03T05:28:50.992Z,6.68
2023-04-03T05:31:19.299Z,6.70
2023-04-03T05:33:47.244Z,6.85
2023-04-03T05:36:18.445Z,7.82
2023-04-03T05:38:50.715Z,8.52
2023-04-03T05:41:21.030Z,7.57
2023-04-03T05:43:48.650Z,7.80
2023-04-03T05:46:19.040Z,7.28
2023-04-03T05:48:50.535Z,6.30
2023-04-03T05:51:34.272Z,6.35
2023-04-03T05:54:29.085Z,6.53
2023-04-03T05:57:03.613Z,8.57
2023-04-03T05:59:31.047Z,5.65
2023-04-03T06:02:01.589Z,6.10
2023-04-03T06:04:28.983Z,5.80
2023-04-03T06:06:57.976Z,7.15
2023-04-03T06:09:29.485Z,5.80
2023-04-03T06:11:58.892Z,6.22
2023-04-03T06:14:27.149Z,6.43
2023-04-03T06:16:55.265Z,7.45
2023-04-03T06:19:23.768Z,14.10
2023-04-03T06:21:54.582Z,13.98
2023-04-03T06:24:24.401Z,9.38
2023-04-03T06:26:52.787Z,7.90
2023-04-03T06:29:21.553Z,7.77
2023-04-03T06:31:50.792Z,5.45
2023-04-03T06:34:18.563Z,4.68
2023-04-03T06:36:46.001Z,6.13
2023-04-03T06:39:23.499Z,8.32
2023-04-03T06:41:52.110Z,7.72
2023-04-03T06:44:26.920Z,7.10
2023-04-03T06:46:54.728Z,5.25
2023-04-03T06:49:22.038Z,5.05
2023-04-03T06:51:49.304Z,5.32
2023-04-03T06:54:16.569Z,5.18
2023-04-03T06:56:44.010Z,5.95
2023-04-03T06:59:14.176Z,7.18
2023-04-03T07:01:42.838Z,6.20
2023-04-03T07:04:10.245Z,6.37
2023-04-03T07:06:37.509Z,4.47
2023-04-03T07:09:08.139Z,4.68
2023-04-03T07:11:36.695Z,4.32
2023-04-03T07:14:04.082Z,4.50
2023-04-03T07:16:31.603Z,3.63
2023-04-03T07:18:59.277Z,3.60
2023-04-03T07:21:26.605Z,3.38
2023-04-03T07:23:54.200Z,4.30
2023-04-03T07:26:22.839Z,3.95
2023-04-03T07:28:50.877Z,3.75
2023-04-03T07:31:18.790Z,4.00
2023-04-03T07:33:46.359Z,3.92
2023-04-03T07:36:18.866Z,4.18
2023-04-03T07:38:46.391Z,8.45
2023-04-03T07:41:17.990Z,10.93
2023-04-03T07:43:47.396Z,7.60
2023-04-03T07:46:15.013Z,12.52
2023-04-03T07:48:42.354Z,11.23
2023-04-03T07:51:11.088Z,8.70
2023-04-03T07:53:38.373Z,6.93
2023-04-03T07:56:06.214Z,7.05
2023-04-03T07:58:33.810Z,3.75
2023-04-03T08:01:01.561Z,5.78
2023-04-03T08:03:29.165Z,6.13
2023-04-03T08:06:11.773Z,6.47
2023-04-03T08:08:43.098Z,6.78
2023-04-03T08:11:12.081Z,11.05
2023-04-03T08:13:41.795Z,4.35
2023-04-03T08:16:17.928Z,3.00
2023-04-03T08:18:45.414Z,3.35
2023-04-03T08:21:13.504Z,2.38
2023-04-03T08:23:42.103Z,1.98
2023-04-03T08:26:13.589Z,2.42
2023-04-03T08:28:41.741Z,3.10
2023-04-03T08:31:19.237Z,3.20
2023-04-03T08:33:47.636Z,1.80
2023-04-03T08:36:25.472Z,1.23
2023-04-03T08:38:54.519Z,7.50
2023-04-03T08:41:36.202Z,1.30
2023-04-03T08:44:30.763Z,1.10
2023-04-03T08:47:41.249Z,1.27
2023-04-03T08:50:23.530Z,3.00
2023-04-03T08:52:58.569Z,1.88
2023-04-03T08:55:32.117Z,0.55
2023-04-03T08:58:12.978Z,2.58
2023-04-03T09:00:59.400Z,2.45
2023-04-03T09:03:35.836Z,0.90
2023-04-03T09:06:31.878Z,1.30
2023-04-03T09:09:36.678Z,1.13
2023-04-03T09:12:26.946Z,1.60
2023-04-03T09:15:06.176Z,0.77
2023-04-03T09:17:45.225Z,0.80
2023-04-03T09:22:55.153Z,0.80
2023-04-03T09:25:33.583Z,0.45
2023-04-03T09:28:02.318Z,0.60
2023-04-03T09:30:30.183Z,0.82
2023-04-03T09:32:58.255Z,1.13
2023-04-03T09:35:40.395Z,0.82
2023-04-03T09:38:12.201Z,1.05
2023-04-03T09:40:49.713Z,1.20
2023-04-03T09:43:33.453Z,1.60
2023-04-03T09:46:33.643Z,1.52
2023-04-03T09:49:09.500Z,1.55
2023-04-03T09:51:38.160Z,1.00
2023-04-03T09:54:25.950Z,1.98
2023-04-03T09:56:56.031Z,1.42
2023-04-03T09:59:23.566Z,1.52
2023-04-03T10:02:23.052Z,1.17
2023-04-03T10:05:06.299Z,1.27
2023-04-03T10:07:39.081Z,0.90
2023-04-03T10:10:15.594Z,0.80
2023-04-03T10:12:43.224Z,1.20
2023-04-03T10:15:21.946Z,1.45
2023-04-03T10:18:11.361Z,1.33
2023-04-03T10:20:50.350Z,0.70
2023-04-03T10:24:02.086Z,0.73
2023-04-03T10:27:27.039Z,1.10
2023-04-03T10:30:43.995Z,0.80
2023-04-03T10:33:26.966Z,0.70
2023-04-03T10:36:31.341Z,0.90
2023-04-03T10:39:26.982Z,0.90
2023-04-03T10:42:36.317Z,0.52
2023-04-03T10:45:24.848Z,0.52
2023-04-03T10:48:31.791Z,0.75
2023-04-03T10:51:18.790Z,0.80
2023-04-03T10:54:21.163Z,0.40
2023-04-03T10:57:13.197Z,0.63
2023-04-03T10:59:54.437Z,0.90
2023-04-03T11:02:33.130Z,0.60
2023-04-03T11:05:18.547Z,0.45
2023-04-03T11:07:53.420Z,1.45
2023-04-03T11:10:43.653Z,0.55
2023-04-03T11:13:37.026Z,0.60
2023-04-03T11:16:06.587Z,0.43
2023-04-03T11:18:48.123Z,0.75
2023-04-03T11:21:30.068Z,0.85
2023-04-03T11:24:01.986Z,0.57
2023-04-03T11:26:37.215Z,0.82
2023-04-03T11:29:20.755Z,0.63
2023-04-03T11:32:47.446Z,0.88
2023-04-03T11:35:16.137Z,0.30
2023-04-03T11:37:50.603Z,0.70
2023-04-03T11:40:30.442Z,0.40
2023-04-03T11:43:00.994Z,0.73
2023-04-03T11:46:01.316Z,0.20
2023-04-03T11:48:32.605Z,0.80
2023-04-03T11:51:12.805Z,0.82
2023-04-03T11:53:44.348Z,0.20
2023-04-03T11:56:23.955Z,0.20
2023-04-03T11:59:22.016Z,0.22
2023-04-03T12:01:56.146Z,0.20
2023-04-03T12:04:28.225Z,0.20
2023-04-03T12:07:22.771Z,0.63
2023-04-03T12:09:50.183Z,0.40
2023-04-03T12:12:32.745Z,0.20
2023-04-03T12:15:24.624Z,0.20
2023-04-03T12:17:52.652Z,0.28
2023-04-03T12:20:59.866Z,0.30
2023-04-03T12:23:33.541Z,0.30
2023-04-03T12:26:23.938Z,0.20
2023-04-03T12:28:53.750Z,0.20
2023-04-03T12:34:50.022Z,0.20
2023-04-03T12:38:00.767Z,0.30
2023-04-03T12:40:43.126Z,0.20
2023-04-03T12:43:37.596Z,0.10
2023-04-03T12:46:08.079Z,0.45
2023-04-03T12:48:55.903Z,0.30
2023-04-03T12:51:41.485Z,0.13
2023-04-03T12:54:20.337Z,0.20
2023-04-03T12:56:47.912Z,0.10
2023-04-03T12:59:25.453Z,0.30
2023-04-03T13:02:02.040Z,0.10
2023-04-03T13:04:32.124Z,0.47
2023-04-03T13:06:59.602Z,0.00
2023-04-03T13:09:30.623Z,0.10
2023-04-03T13:12:12.433Z,0.20
2023-04-03T13:14:41.273Z,0.30
2023-04-03T13:17:17.006Z,1.13
2023-04-03T13:19:48.671Z,0.32
2023-04-03T13:22:29.156Z,0.45
2023-04-03T13:25:02.662Z,0.20
2023-04-03T13:27:32.587Z,0.40
2023-04-03T13:30:05.410Z,0.15
2023-04-03T13:32:33.519Z,0.10
2023-04-03T13:35:15.647Z,0.17
2023-04-03T13:38:00.338Z,0.20
2023-04-03T13:40:30.109Z,0.15
2023-04-03T13:43:17.545Z,0.25
2023-04-03T13:46:05.438Z,0.52
2023-04-03T13:48:37.549Z,0.20
2023-04-03T13:51:22.576Z,0.28
2023-04-03T13:53:54.438Z,0.25
2023-04-03T13:56:42.304Z,0.20
2023-04-03T13:59:12.518Z,0.63
2023-04-03T14:01:53.636Z,0.60
2023-04-03T14:04:44.441Z,0.85
2023-04-03T14:07:13.320Z,1.40
2023-04-03T14:09:41.034Z,1.00
2023-04-03T14:12:31.413Z,1.15
2023-04-03T14:15:12.730Z,0.50
2023-04-03T14:17:40.441Z,0.25
2023-04-03T14:20:15.463Z,1.05
2023-04-03T14:22:43.044Z,0.75
2023-04-03T14:25:11.088Z,1.00
2023-04-03T14:27:43.168Z,0.90
2023-04-03T14:30:22.216Z,1.00
2023-04-03T14:35:19.206Z,1.48
2023-04-03T14:37:48.530Z,0.70
2023-04-03T14:40:21.746Z,0.60
2023-04-03T14:42:49.301Z,0.70
2023-04-03T14:45:18.760Z,0.65
2023-04-03T14:50:27.259Z,0.88
2023-04-03T14:52:59.003Z,1.20
2023-04-03T14:55:28.084Z,0.70
2023-04-03T14:57:55.563Z,1.00
2023-04-03T15:00:23.571Z,1.00
2023-04-03T15:02:51.503Z,0.80
2023-04-03T15:05:20.105Z,0.90
2023-04-03T15:07:56.742Z,0.90
2023-04-03T15:10:28.211Z,1.38
2023-04-03T15:12:56.618Z,1.23
2023-04-03T15:15:25.214Z,1.10
2023-04-03T15:17:58.053Z,1.00
2023-04-03T15:20:28.017Z,1.10
2023-04-03T15:22:56.797Z,1.45
2023-04-03T15:25:25.658Z,1.13
2023-04-03T15:27:57.116Z,2.13
2023-04-03T15:30:24.712Z,1.55
2023-04-03T15:32:53.524Z,2.50
2023-04-03T15:35:21.018Z,2.92
2023-04-03T15:37:48.602Z,4.38
2023-04-03T15:40:16.197Z,2.50
2023-04-03T15:42:43.706Z,3.20
2023-04-03T15:45:11.106Z,3.88
2023-04-03T15:47:38.828Z,3.67
2023-04-03T15:50:08.451Z,3.28
2023-04-03T15:52:36.583Z,2.95
2023-04-03T15:55:05.627Z,3.47
2023-04-03T16:00:07.558Z,4.70
2023-04-03T16:05:03.040Z,3.13
2023-04-03T16:07:30.744Z,5.60
2023-04-03T16:09:58.059Z,4.82
2023-04-03T16:12:25.468Z,5.20
2023-04-03T16:14:52.722Z,3.90
2023-04-03T16:17:20.445Z,4.03
2023-04-03T16:19:47.915Z,2.97
2023-04-03T16:22:15.345Z,3.17
2023-04-03T16:24:42.820Z,3.13
2023-04-03T16:27:10.612Z,3.33
2023-04-03T16:29:37.958Z,3.55
2023-04-03T16:32:05.782Z,2.60
2023-04-03T16:34:33.251Z,3.17
2023-04-03T16:37:00.753Z,2.47
2023-04-03T16:39:28.032Z,1.95
2023-04-03T16:41:55.969Z,2.55
2023-04-03T16:44:23.242Z,2.53
2023-04-03T16:46:50.503Z,2.03
2023-04-03T16:49:17.920Z,2.75
2023-04-03T16:51:45.820Z,2.22
2023-04-03T16:54:14.079Z,2.88
2023-04-03T16:56:41.755Z,3.40
2023-04-03T16:59:09.185Z,4.13
2023-04-03T17:01:36.565Z,3.22
2023-04-03T17:04:04.052Z,2.97
2023-04-03T17:06:31.348Z,2.90
2023-04-03T17:08:58.731Z,2.83
2023-04-03T17:11:30.630Z,3.17
2023-04-03T17:13:58.246Z,3.00
2023-04-03T17:16:26.473Z,3.47
2023-04-03T17:18:54.777Z,3.63
2023-04-03T17:21:22.946Z,3.40
2023-04-03T17:23:57.953Z,3.78
2023-04-03T17:26:26.935Z,3.83
2023-04-03T17:28:54.513Z,3.47
2023-04-03T17:31:21.867Z,3.65
2023-04-03T17:33:49.405Z,3.45
2023-04-03T17:36:16.737Z,3.92
2023-04-03T17:38:44.571Z,3.92
2023-04-03T17:41:11.851Z,3.72
2023-04-03T17:43:39.328Z,3.28
2023-04-03T17:46:09.821Z,4.18
2023-04-03T17:48:41.036Z,4.53
2023-04-03T17:51:15.374Z,4.88
2023-04-03T17:53:43.847Z,4.15
2023-04-03T17:56:23.809Z,4.40
2023-04-03T17:58:51.731Z,3.90
2023-04-03T18:01:24.464Z,3.55
2023-04-03T18:03:58.676Z,4.40
2023-04-03T18:06:36.306Z,4.00
2023-04-03T18:09:09.387Z,4.07
2023-04-03T18:11:37.270Z,4.18
2023-04-03T18:14:08.225Z,4.07
2023-04-03T18:16:35.815Z,4.20
2023-04-03T18:19:21.182Z,3.75
2023-04-03T18:21:51.815Z,4.47
2023-04-03T18:26:53.423Z,4.05
2023-04-03T18:29:21.404Z,4.72
2023-04-03T18:31:53.553Z,4.00
2023-04-03T18:34:21.000Z,3.92
2023-04-03T18:36:48.759Z,4.10
2023-04-03T18:39:16.115Z,4.32
2023-04-03T18:41:44.552Z,4.30
2023-04-03T18:44:16.418Z,3.93
2023-04-03T18:46:44.482Z,4.28
2023-04-03T18:49:13.549Z,3.80
2023-04-03T18:51:41.437Z,4.97
2023-04-03T18:54:09.205Z,3.88
2023-04-03T18:56:37.668Z,3.28
2023-04-03T18:59:05.511Z,3.97
2023-04-03T19:01:34.232Z,3.50
2023-04-03T19:04:02.065Z,3.28
2023-04-03T19:06:29.567Z,3.92
2023-04-03T19:08:57.661Z,3.03
2023-04-03T19:11:27.989Z,3.97
2023-04-03T19:14:14.568Z,3.70
2023-04-03T19:16:45.207Z,2.85
2023-04-03T19:19:12.761Z,4.40
2023-04-03T19:21:41.719Z,3.67
2023-04-03T19:24:12.019Z,3.10
2023-04-03T19:26:41.519Z,3.38
2023-04-03T19:31:38.482Z,3.15
2023-04-03T19:34:07.081Z,3.40
2023-04-03T19:36:35.726Z,3.47
2023-04-03T19:39:05.088Z,3.80
2023-04-03T19:41:35.383Z,2.85
2023-04-03T19:44:06.783Z,3.17
2023-04-03T19:46:35.724Z,3.70
2023-04-03T19:49:04.455Z,3.25
2023-04-03T19:51:31.864Z,3.85
2023-04-03T19:54:02.319Z,3.70
2023-04-03T19:56:30.188Z,3.38
2023-04-03T19:58:57.790Z,3.55
2023-04-03T20:01:27.239Z,3.00
2023-04-03T20:06:22.772Z,3.13
2023-04-03T20:08:50.237Z,3.63
2023-04-03T20:11:18.216Z,3.88
2023-04-03T20:13:50.608Z,3.55
2023-04-03T20:16:22.878Z,3.60
2023-04-03T20:19:02.816Z,4.10
2023-04-03T20:21:33.482Z,3.78
2023-04-03T20:24:05.196Z,3.47
2023-04-03T20:26:43.514Z,3.50
2023-04-03T20:29:14.227Z,3.00
2023-04-03T20:31:45.904Z,3.63
2023-04-03T20:34:15.572Z,2.80
2023-04-03T20:36:50.129Z,3.28
2023-04-03T20:39:20.352Z,3.65
2023-04-03T20:41:49.100Z,3.58
2023-04-03T20:44:19.457Z,3.77
2023-04-03T20:46:53.021Z,3.28
2023-04-03T20:49:22.186Z,2.92
2023-04-03T20:51:50.723Z,2.85
2023-04-03T20:54:18.571Z,2.50
2023-04-03T20:56:49.007Z,2.35
2023-04-03T20:59:17.300Z,2.38
2023-04-03T21:01:47.204Z,2.33
2023-04-03T21:04:27.162Z,2.63
2023-04-03T21:07:52.850Z,2.47
2023-04-03T21:11:16.551Z,2.40
2023-04-03T21:14:42.147Z,2.95
2023-04-03T21:17:09.329Z,3.45
2023-04-03T21:19:42.715Z,4.03
2023-04-03T21:22:10.387Z,2.60
2023-04-03T21:24:38.271Z,2.60
2023-04-03T21:27:05.581Z,3.30
2023-04-03T21:29:33.012Z,2.65
2023-04-03T21:32:01.111Z,3.22
2023-04-03T21:34:31.962Z,2.55
2023-04-03T21:37:08.184Z,3.28
2023-04-03T21:39:36.038Z,2.80
2023-04-03T21:42:03.458Z,3.30
2023-04-03T21:44:31.681Z,2.92
2023-04-03T21:46:59.183Z,2.97
2023-04-03T21:49:26.540Z,2.67
2023-04-03T21:51:53.729Z,3.25
2023-04-03T21:54:21.132Z,3.85
2023-04-03T21:56:48.916Z,2.92
2023-04-03T21:59:16.415Z,4.15
2023-04-03T22:01:44.006Z,3.20
2023-04-03T22:04:12.016Z,3.58
2023-04-03T22:06:39.563Z,3.05
2023-04-03T22:09:07.135Z,3.47
2023-04-03T22:11:34.536Z,3.33
2023-04-03T22:14:01.987Z,3.85
2023-04-03T22:16:29.302Z,2.97
2023-04-03T22:18:58.927Z,3.58
2023-04-03T22:23:54.038Z,2.72
2023-04-03T22:26:21.173Z,3.70
2023-04-03T22:28:48.581Z,3.35
2023-04-03T22:31:16.651Z,4.28
2023-04-03T22:33:45.254Z,3.47
2023-04-03T22:36:13.900Z,3.15
2023-04-03T22:38:46.238Z,3.47
2023-04-03T22:41:13.543Z,3.30
2023-04-03T22:43:40.923Z,3.33
2023-04-03T22:46:09.408Z,2.95
2023-04-03T22:48:40.328Z,3.20
2023-04-03T22:51:07.893Z,3.28
2023-04-03T22:53:36.102Z,2.72
2023-04-03T22:56:13.271Z,2.72
2023-04-03T22:58:40.381Z,2.40
2023-04-03T23:01:10.522Z,2.75
2023-04-03T23:03:40.218Z,3.15
2023-04-03T23:06:09.533Z,3.13
2023-04-03T23:08:40.346Z,3.10
2023-04-03T23:11:08.887Z,3.45
2023-04-03T23:13:36.719Z,2.45
2023-04-03T23:16:04.946Z,2.72
2023-04-03T23:18:33.075Z,2.90
2023-04-03T23:21:02.747Z,2.53
2023-04-03T23:23:30.197Z,2.60
2023-04-03T23:26:00.729Z,2.80
2023-04-03T23:28:29.387Z,2.60
2023-04-03T23:31:05.998Z,3.47
2023-04-03T23:33:33.787Z,3.72
2023-04-03T23:36:07.621Z,4.47
2023-04-03T23:38:36.195Z,3.30
2023-04-03T23:41:03.443Z,4.35
2023-04-03T23:43:31.291Z,4.05
2023-04-03T23:45:58.559Z,4.18
2023-04-03T23:48:25.967Z,4.03
2023-04-03T23:50:53.219Z,4.47
2023-04-03T23:53:21.027Z,4.20
2023-04-03T23:55:48.570Z,4.25
2023-04-03T23:58:15.740Z,5.15
